createdAt,value
2023-05-05T04:40:16.424Z,11.73
2023-05-05T04:43:19.979Z,12.13
2023-05-05T04:46:25.667Z,12.46
2023-05-05T04:49:32.393Z,12.66
2023-05-05T04:52:34.987Z,12.84
2023-05-05T04:55:37.466Z,13.15
2023-05-05T04:58:39.972Z,13.18
2023-05-05T05:01:42.583Z,13.19
2023-05-05T05:04:45.301Z,13.32
2023-05-05T05:07:47.810Z,13.33
2023-05-05T05:10:50.364Z,13.45
2023-05-05T05:13:53.284Z,13.55
2023-05-05T05:16:55.789Z,13.82
2023-05-05T05:20:01.455Z,14.12
2023-05-05T05:23:05.444Z,14.14
2023-05-05T05:26:08.052Z,14.25
2023-05-05T05:29:10.638Z,14.13
2023-05-05T05:32:13.204Z,14.25
2023-05-05T05:35:15.866Z,14.54
2023-05-05T05:38:18.406Z,14.77
2023-05-05T05:41:21.745Z,14.67
2023-05-05T05:44:24.667Z,14.99
2023-05-05T05:47:28.231Z,14.91
2023-05-05T05:50:30.902Z,15.05
2023-05-05T05:53:33.537Z,14.68
2023-05-05T05:56:36.110Z,15.03
2023-05-05T05:59:38.655Z,15.12
2023-05-05T06:02:41.318Z,15.28
2023-05-05T06:05:45.814Z,15.25
2023-05-05T06:08:48.322Z,15.73
2023-05-05T06:11:51.546Z,15.81
2023-05-05T06:14:54.417Z,16.09
2023-05-05T06:17:57.135Z,15.92
2023-05-05T06:21:00.365Z,16.20
2023-05-05T06:24:03.040Z,16.03
2023-05-05T06:27:05.701Z,16.32
2023-05-05T06:30:09.852Z,16.13
2023-05-05T06:33:12.648Z,16.07
2023-05-05T06:36:15.798Z,16.05
2023-05-05T06:39:18.683Z,16.37
2023-05-05T06:42:21.325Z,16.27
2023-05-05T06:45:23.817Z,16.60
2023-05-05T06:48:26.361Z,16.63
2023-05-05T06:51:28.876Z,16.23
2023-05-05T06:54:31.392Z,16.40
2023-05-05T06:57:33.881Z,16.18
2023-05-05T07:00:36.403Z,16.33
2023-05-05T07:03:39.177Z,16.46
2023-05-05T07:06:41.672Z,16.20
2023-05-05T07:09:45.204Z,16.30
2023-05-05T07:12:47.976Z,16.07
2023-05-05T07:15:50.596Z,16.62
2023-05-05T07:18:53.157Z,16.74
2023-05-05T07:21:55.744Z,16.81
2023-05-05T07:24:58.287Z,16.82
2023-05-05T07:28:00.860Z,16.91
2023-05-05T07:31:03.394Z,17.34
2023-05-05T07:34:05.893Z,17.45
2023-05-05T07:37:08.464Z,17.44
2023-05-05T07:40:11.564Z,17.46
2023-05-05T07:43:14.946Z,17.46
2023-05-05T07:46:18.062Z,17.53
2023-05-05T07:49:20.952Z,17.44
2023-05-05T07:52:37.049Z,17.66
2023-05-05T07:55:46.506Z,17.77
2023-05-05T07:58:49.071Z,18.02
2023-05-05T08:01:54.276Z,18.43
2023-05-05T08:04:57.454Z,18.48
2023-05-05T08:08:00.200Z,18.60
2023-05-05T08:11:03.147Z,18.74
2023-05-05T08:14:05.694Z,18.63
2023-05-05T08:17:08.671Z,18.40
2023-05-05T08:20:11.879Z,18.89
2023-05-05T08:23:14.378Z,18.79
2023-05-05T08:26:17.019Z,18.89
2023-05-05T08:29:21.219Z,19.26
2023-05-05T08:32:23.982Z,19.34
2023-05-05T08:35:26.662Z,19.08
2023-05-05T08:38:29.217Z,18.89
2023-05-05T08:41:31.747Z,19.21
2023-05-05T08:44:34.348Z,19.07
2023-05-05T08:47:37.172Z,19.30
2023-05-05T08:50:39.931Z,19.54
2023-05-05T08:53:54.591Z,19.72
2023-05-05T08:56:57.253Z,19.79
2023-05-05T08:59:59.813Z,19.94
2023-05-05T09:03:02.514Z,19.67
2023-05-05T09:06:05.316Z,19.42
2023-05-05T09:09:08.314Z,19.53
2023-05-05T09:12:11.739Z,19.62
2023-05-05T09:15:16.540Z,19.50
2023-05-05T09:18:19.113Z,19.43
2023-05-05T09:21:26.088Z,19.55
2023-05-05T09:24:28.607Z,19.35
2023-05-05T09:27:31.160Z,19.46
2023-05-05T09:30:33.795Z,19.78
2023-05-05T09:33:36.404Z,19.88
2023-05-05T09:36:48.464Z,19.85
2023-05-05T09:39:55.169Z,20.05
2023-05-05T09:43:03.899Z,20.08
2023-05-05T09:46:09.723Z,20.12
2023-05-05T09:49:30.802Z,20.02
2023-05-05T09:52:33.374Z,20.45
2023-05-05T09:55:36.260Z,20.39
2023-05-05T09:58:38.936Z,20.07
2023-05-05T10:01:43.554Z,20.02
2023-05-05T10:04:46.273Z,20.01
2023-05-05T10:07:48.867Z,20.09
2023-05-05T10:10:59.775Z,20.18
2023-05-05T10:14:02.695Z,20.07
2023-05-05T10:17:05.780Z,19.93
2023-05-05T10:20:08.907Z,19.88
2023-05-05T10:23:13.433Z,20.31
2023-05-05T10:26:16.049Z,20.37
2023-05-05T10:29:42.493Z,20.59
2023-05-05T10:32:57.332Z,21.02
2023-05-05T10:36:07.817Z,21.38
2023-05-05T10:39:11.290Z,21.18
2023-05-05T10:42:14.062Z,21.42
2023-05-05T10:45:16.777Z,21.59
2023-05-05T10:48:23.371Z,21.70
2023-05-05T10:52:04.190Z,21.78
2023-05-05T10:55:24.712Z,21.19
2023-05-05T10:58:44.097Z,20.87
2023-05-05T11:01:51.392Z,20.87
2023-05-05T11:05:21.471Z,21.23
2023-05-05T11:08:29.724Z,21.32
2023-05-05T11:12:03.752Z,21.59
2023-05-05T11:15:28.435Z,21.32
2023-05-05T11:18:37.874Z,21.29
2023-05-05T11:22:00.055Z,21.52
2023-05-05T11:25:40.939Z,21.47
2023-05-05T11:29:01.119Z,21.26
2023-05-05T11:32:13.910Z,20.77
2023-05-05T11:35:16.652Z,21.07
2023-05-05T11:38:19.231Z,20.96
2023-05-05T11:41:34.218Z,21.24
2023-05-05T11:44:37.792Z,21.39
2023-05-05T11:47:40.494Z,21.35
2023-05-05T11:50:44.203Z,21.64
2023-05-05T11:53:47.795Z,21.70
2023-05-05T11:56:51.412Z,21.59
2023-05-05T12:00:10.995Z,21.86
2023-05-05T12:03:14.307Z,21.38
2023-05-05T12:06:17.054Z,21.52
2023-05-05T12:09:20.923Z,21.88
2023-05-05T12:12:43.790Z,22.12
2023-05-05T12:15:47.317Z,22.25
2023-05-05T12:18:50.152Z,22.05
2023-05-05T12:21:54.833Z,21.84
2023-05-05T12:24:58.424Z,21.91
2023-05-05T12:28:01.011Z,21.96
2023-05-05T12:31:03.838Z,21.77
2023-05-05T12:34:07.340Z,21.83
2023-05-05T12:37:09.890Z,21.78
2023-05-05T12:40:50.111Z,21.87
2023-05-05T12:43:57.241Z,21.68
2023-05-05T12:46:59.945Z,21.72
2023-05-05T12:50:03.440Z,21.64
2023-05-05T12:53:05.955Z,21.73
2023-05-05T12:56:30.140Z,21.83
2023-05-05T12:59:32.638Z,22.08
2023-05-05T13:02:36.770Z,21.97
2023-05-05T13:05:41.440Z,22.07
2023-05-05T13:08:44.119Z,22.16
2023-05-05T13:11:46.808Z,22.31
2023-05-05T13:14:49.383Z,22.52
2023-05-05T13:18:01.137Z,22.50
2023-05-05T13:21:03.910Z,22.29
2023-05-05T13:24:23.018Z,22.75
2023-05-05T13:27:29.511Z,22.78
2023-05-05T13:30:32.130Z,22.76
2023-05-05T13:33:34.966Z,22.78
2023-05-05T13:36:37.753Z,22.95
2023-05-05T13:39:40.551Z,23.18
2023-05-05T13:42:43.163Z,23.05
2023-05-05T13:45:46.096Z,22.96
2023-05-05T13:48:48.734Z,23.08
2023-05-05T13:51:51.337Z,23.22
2023-05-05T13:54:53.887Z,23.14
2023-05-05T13:57:56.468Z,23.06
2023-05-05T14:00:59.035Z,23.06
2023-05-05T14:04:04.536Z,23.16
2023-05-05T14:07:08.144Z,23.08
2023-05-05T14:10:11.053Z,23.02
2023-05-05T14:13:15.511Z,23.10
2023-05-05T14:16:18.183Z,23.11
2023-05-05T14:19:20.808Z,22.87
2023-05-05T14:22:23.426Z,22.84
2023-05-05T14:25:26.006Z,22.97
2023-05-05T14:28:28.674Z,22.96
2023-05-05T14:31:31.304Z,23.02
2023-05-05T14:34:33.884Z,23.03
2023-05-05T14:37:36.513Z,22.82
2023-05-05T14:40:39.072Z,22.83
2023-05-05T14:43:41.725Z,22.49
2023-05-05T14:46:45.980Z,22.55
2023-05-05T14:49:48.908Z,22.67
2023-05-05T14:52:51.495Z,22.67
2023-05-05T14:55:54.057Z,22.62
2023-05-05T14:58:56.698Z,22.62
2023-05-05T15:01:59.401Z,22.55
2023-05-05T15:05:02.136Z,22.66
2023-05-05T15:08:04.833Z,22.63
2023-05-05T15:11:07.455Z,22.45
2023-05-05T15:14:10.032Z,22.21
2023-05-05T15:17:12.624Z,22.43
2023-05-05T15:20:15.162Z,22.24
2023-05-05T15:23:17.726Z,22.28
2023-05-05T15:26:20.284Z,22.25
2023-05-05T15:29:22.870Z,22.18
2023-05-05T15:32:25.586Z,22.29
2023-05-05T15:35:28.232Z,22.18
2023-05-05T15:38:30.836Z,22.13
2023-05-05T15:41:36.146Z,21.98
2023-05-05T15:44:38.751Z,21.98
2023-05-05T15:47:41.458Z,21.92
2023-05-05T15:50:44.120Z,22.10
2023-05-05T15:53:47.326Z,22.11
2023-05-05T15:56:49.806Z,22.01
2023-05-05T15:59:52.748Z,22.05
2023-05-05T16:02:55.298Z,21.98
2023-05-05T16:05:57.997Z,22.02
2023-05-05T16:09:00.644Z,22.09
2023-05-05T16:12:03.381Z,21.91
2023-05-05T16:15:06.739Z,21.89
2023-05-05T16:18:09.460Z,21.88
2023-05-05T16:21:12.439Z,21.89
2023-05-05T16:24:16.701Z,21.80
2023-05-05T16:27:19.586Z,21.80
2023-05-05T16:30:22.153Z,21.51
2023-05-05T16:33:24.782Z,21.49
2023-05-05T16:36:28.025Z,21.50
2023-05-05T16:39:33.035Z,21.49
2023-05-05T16:42:35.665Z,21.50
2023-05-05T16:45:38.232Z,21.50
2023-05-05T16:48:41.193Z,21.46
2023-05-05T16:51:43.731Z,21.47
2023-05-05T16:54:48.095Z,21.43
2023-05-05T16:57:50.637Z,21.30
2023-05-05T17:00:53.625Z,21.33
2023-05-05T17:03:57.557Z,21.18
2023-05-05T17:07:00.112Z,21.23
2023-05-05T17:10:02.722Z,21.11
2023-05-05T17:13:05.269Z,21.04
2023-05-05T17:16:08.019Z,20.94
2023-05-05T17:19:10.697Z,20.83
2023-05-05T17:22:13.300Z,20.72
2023-05-05T17:25:15.980Z,20.64
2023-05-05T17:28:18.580Z,20.55
2023-05-05T17:31:21.236Z,20.46
2023-05-05T17:34:23.754Z,20.38
2023-05-05T17:37:26.349Z,20.30
2023-05-05T17:40:28.995Z,20.23
2023-05-05T17:43:31.543Z,20.12
2023-05-05T17:46:34.047Z,20.07
2023-05-05T17:49:36.579Z,19.99
2023-05-05T17:52:40.517Z,19.87
2023-05-05T17:55:46.288Z,19.79
2023-05-05T17:58:49.105Z,19.66
2023-05-05T18:01:51.742Z,19.54
2023-05-05T18:04:54.331Z,19.48
2023-05-05T18:07:56.943Z,19.36
2023-05-05T18:10:59.505Z,19.22
2023-05-05T18:14:02.027Z,19.08
2023-05-05T18:17:04.990Z,18.99
2023-05-05T18:20:08.143Z,18.90
2023-05-05T18:23:11.318Z,18.74
2023-05-05T18:26:13.931Z,18.58
2023-05-05T18:29:17.454Z,18.48
2023-05-05T18:32:20.125Z,18.36
2023-05-05T18:35:22.719Z,18.29
2023-05-05T18:38:25.378Z,18.26
2023-05-05T18:41:27.956Z,18.18
2023-05-05T18:44:32.825Z,18.03
2023-05-05T18:47:37.516Z,17.90
2023-05-05T18:50:40.136Z,17.78
2023-05-05T18:53:42.676Z,17.72
2023-05-05T18:56:45.260Z,17.64
2023-05-05T18:59:47.839Z,17.50
2023-05-05T19:02:50.467Z,17.41
2023-05-05T19:05:53.000Z,17.24
2023-05-05T19:08:56.860Z,17.22
2023-05-05T19:11:59.540Z,17.14
2023-05-05T19:15:02.170Z,17.10
2023-05-05T19:18:06.519Z,16.96
2023-05-05T19:21:09.144Z,16.91
2023-05-05T19:24:11.824Z,17.02
2023-05-05T19:27:16.635Z,16.89
2023-05-05T19:30:21.807Z,17.10
2023-05-05T19:33:24.385Z,16.86
2023-05-05T19:36:27.902Z,16.91
2023-05-05T19:39:30.506Z,16.71
2023-05-05T19:42:33.083Z,16.52
2023-05-05T19:45:35.684Z,16.29
2023-05-05T19:48:38.301Z,16.30
2023-05-05T19:51:42.093Z,16.24
2023-05-05T19:54:44.633Z,16.09
2023-05-05T19:57:47.370Z,15.96
2023-05-05T20:00:49.883Z,16.02
2023-05-05T20:03:54.522Z,15.94
2023-05-05T20:06:57.455Z,15.65
2023-05-05T20:10:00.857Z,15.91
2023-05-05T20:13:03.518Z,15.83
2023-05-05T20:16:06.670Z,15.65
2023-05-05T20:19:09.260Z,15.50
2023-05-05T20:22:11.781Z,15.47
2023-05-05T20:25:16.313Z,15.31
2023-05-05T20:28:18.918Z,15.21
2023-05-05T20:31:21.624Z,15.13
2023-05-05T20:34:27.904Z,15.07
2023-05-05T20:37:30.420Z,15.32
2023-05-05T20:40:33.817Z,15.04
2023-05-05T20:43:36.944Z,14.87
2023-05-05T20:46:39.564Z,14.94
2023-05-05T20:49:42.179Z,14.80
2023-05-05T20:52:44.717Z,14.80
2023-05-05T20:55:47.263Z,14.77
2023-05-05T20:58:49.866Z,14.59
2023-05-05T21:01:52.438Z,14.57
2023-05-05T21:04:55.063Z,14.49
2023-05-05T21:07:59.214Z,14.34
2023-05-05T21:11:03.322Z,14.31
2023-05-05T21:14:06.170Z,14.48
2023-05-05T21:17:08.737Z,14.53
2023-05-05T21:20:12.308Z,14.20
2023-05-05T21:23:15.172Z,14.19
2023-05-05T21:26:17.687Z,14.06
2023-05-05T21:29:20.283Z,13.93
2023-05-05T21:32:22.911Z,13.82
2023-05-05T21:35:25.570Z,13.76
2023-05-05T21:38:28.154Z,13.66
2023-05-05T21:41:30.885Z,13.58
2023-05-05T21:44:33.552Z,13.65
2023-05-05T21:47:36.236Z,13.90
2023-05-05T21:50:38.878Z,13.80
2023-05-05T21:53:41.479Z,13.97
2023-05-05T21:56:43.997Z,13.67
2023-05-05T21:59:46.752Z,13.57
2023-05-05T22:02:49.499Z,13.55
2023-05-05T22:05:52.378Z,13.88
2023-05-05T22:08:56.742Z,13.55
2023-05-05T22:11:59.414Z,13.44
2023-05-05T22:15:01.938Z,13.38
2023-05-05T22:18:04.784Z,13.20
2023-05-05T22:21:07.364Z,13.18
2023-05-05T22:24:09.999Z,13.22
2023-05-05T22:27:12.529Z,13.08
2023-05-05T22:30:15.155Z,13.14
2023-05-05T22:33:17.684Z,13.11
2023-05-05T22:36:20.307Z,13.33
2023-05-05T22:39:23.839Z,13.06
2023-05-05T22:42:26.958Z,13.26
2023-05-05T22:45:29.587Z,13.50
2023-05-05T22:48:32.294Z,13.12
2023-05-05T22:51:35.295Z,13.02
2023-05-05T22:54:37.864Z,13.01
2023-05-05T22:57:40.541Z,12.93
2023-05-05T23:00:43.310Z,13.00
2023-05-05T23:03:46.463Z,13.12
2023-05-05T23:06:49.039Z,13.20
2023-05-05T23:09:51.631Z,12.74
2023-05-05T23:12:54.242Z,12.92
2023-05-05T23:15:56.842Z,12.65
2023-05-05T23:18:59.376Z,12.57
2023-05-05T23:22:02.505Z,12.67
2023-05-05T23:25:05.350Z,12.39
2023-05-05T23:28:07.854Z,12.31
2023-05-05T23:31:10.533Z,12.51
2023-05-05T23:34:13.935Z,12.42
2023-05-05T23:37:16.476Z,12.36
2023-05-05T23:40:19.285Z,12.45
2023-05-05T23:43:21.917Z,12.63
2023-05-05T23:46:24.489Z,12.57
2023-05-05T23:49:27.054Z,12.74
2023-05-05T23:52:29.618Z,12.73
2023-05-05T23:55:32.286Z,12.63
2023-05-05T23:58:34.851Z,12.77
